createdAt,value
2022-12-08T00:01:19.585Z,6.12
2022-12-08T00:03:47.339Z,6.40
2022-12-08T00:06:41.791Z,6.69
2022-12-08T00:09:32.027Z,6.68
2022-12-08T00:12:03.546Z,7.05
2022-12-08T00:14:32.898Z,6.98
2022-12-08T00:17:00.391Z,6.96
2022-12-08T00:19:27.640Z,6.78
2022-12-08T00:21:55.348Z,6.93
2022-12-08T00:24:23.490Z,7.07
2022-12-08T00:26:50.099Z,7.56
2022-12-08T00:29:17.892Z,7.24
2022-12-08T00:31:45.022Z,7.16
2022-12-08T00:34:15.806Z,6.98
2022-12-08T00:36:43.156Z,7.47
2022-12-08T00:39:11.173Z,6.58
2022-12-08T00:41:56.506Z,6.57
2022-12-08T00:44:23.254Z,6.56
2022-12-08T00:46:49.974Z,5.92
2022-12-08T00:49:17.743Z,5.51
2022-12-08T00:51:44.749Z,5.75
2022-12-08T00:54:12.009Z,6.37
2022-12-08T00:56:39.640Z,5.64
2022-12-08T00:59:06.987Z,5.81
2022-12-08T01:01:34.747Z,6.03
2022-12-08T01:04:11.477Z,5.68
2022-12-08T01:06:38.954Z,5.65
2022-12-08T01:09:06.621Z,5.95
2022-12-08T01:11:33.474Z,6.44
2022-12-08T01:13:59.955Z,6.24
2022-12-08T01:16:30.158Z,6.35
2022-12-08T01:18:58.049Z,5.87
2022-12-08T01:21:28.082Z,6.51
2022-12-08T01:23:55.441Z,6.46
2022-12-08T01:26:22.314Z,6.19
2022-12-08T01:28:48.896Z,6.01
2022-12-08T01:31:17.672Z,6.55
2022-12-08T01:33:44.607Z,7.16
2022-12-08T01:36:32.151Z,6.97
2022-12-08T01:39:00.774Z,6.66
2022-12-08T01:41:33.166Z,6.52
2022-12-08T01:44:01.624Z,6.21
2022-12-08T01:46:33.356Z,6.28
2022-12-08T01:49:04.344Z,6.55
2022-12-08T01:51:33.604Z,6.23
2022-12-08T01:54:00.753Z,6.23
2022-12-08T01:56:56.602Z,5.98
2022-12-08T01:59:24.585Z,5.53
2022-12-08T02:01:51.913Z,6.36
2022-12-08T02:04:18.588Z,6.40
2022-12-08T02:06:46.195Z,5.94
2022-12-08T02:09:13.074Z,5.91
2022-12-08T02:11:39.591Z,6.61
2022-12-08T02:14:08.318Z,6.62
2022-12-08T02:16:56.088Z,6.63
2022-12-08T02:19:31.780Z,6.15
2022-12-08T02:22:30.704Z,6.00
2022-12-08T02:25:09.170Z,6.27
2022-12-08T02:27:49.951Z,5.85
2022-12-08T02:30:44.217Z,5.68
2022-12-08T02:33:25.925Z,5.94
2022-12-08T02:36:12.543Z,6.00
2022-12-08T02:38:56.117Z,6.57
2022-12-08T02:41:33.748Z,5.86
2022-12-08T02:44:08.703Z,6.28
2022-12-08T02:46:42.466Z,6.18
2022-12-08T02:49:09.694Z,6.27
2022-12-08T02:51:36.244Z,5.73
2022-12-08T02:54:03.732Z,6.08
2022-12-08T02:57:00.507Z,6.02
2022-12-08T02:59:40.801Z,6.03
2022-12-08T03:02:16.660Z,5.81
2022-12-08T03:05:06.336Z,5.87
2022-12-08T03:07:39.201Z,6.23
2022-12-08T03:10:43.685Z,6.50
2022-12-08T03:13:13.879Z,6.47
2022-12-08T03:15:41.908Z,5.86
2022-12-08T03:18:11.206Z,6.25
2022-12-08T03:20:38.947Z,6.40
2022-12-08T03:23:08.843Z,6.45
2022-12-08T03:25:43.630Z,6.20
2022-12-08T03:28:10.363Z,6.24
2022-12-08T03:30:39.673Z,6.29
2022-12-08T03:33:24.723Z,6.14
2022-12-08T03:35:51.829Z,6.24
2022-12-08T03:38:18.497Z,6.29
2022-12-08T03:41:08.996Z,6.20
2022-12-08T03:43:35.694Z,6.75
2022-12-08T03:46:02.460Z,6.45
2022-12-08T03:48:29.022Z,5.87
2022-12-08T03:50:55.599Z,6.37
2022-12-08T03:53:22.070Z,6.40
2022-12-08T03:55:48.525Z,6.46
2022-12-08T03:58:14.984Z,6.88
2022-12-08T04:00:41.458Z,6.38
2022-12-08T04:03:07.968Z,6.70
2022-12-08T04:05:34.773Z,6.87
2022-12-08T04:08:01.477Z,6.68
2022-12-08T04:10:28.143Z,5.93
2022-12-08T04:12:54.666Z,5.81
2022-12-08T04:15:21.414Z,6.04
2022-12-08T04:17:47.950Z,6.22
2022-12-08T04:20:14.524Z,6.14
2022-12-08T04:22:41.009Z,6.34
2022-12-08T04:25:07.905Z,6.10
2022-12-08T04:27:34.447Z,5.77
2022-12-08T04:30:01.034Z,6.24
2022-12-08T04:32:27.536Z,5.60
2022-12-08T04:34:54.099Z,5.71
2022-12-08T04:37:20.639Z,5.73
2022-12-08T04:39:47.244Z,5.95
2022-12-08T04:42:13.697Z,5.60
2022-12-08T04:44:40.223Z,5.72
2022-12-08T04:47:06.797Z,5.52
2022-12-08T04:49:33.549Z,5.73
2022-12-08T04:52:00.073Z,5.75
2022-12-08T04:54:27.004Z,5.72
2022-12-08T04:56:53.595Z,6.02
2022-12-08T04:59:20.069Z,5.71
2022-12-08T05:01:46.722Z,5.73
2022-12-08T05:04:13.307Z,5.79
2022-12-08T05:06:39.779Z,5.61
2022-12-08T05:09:06.265Z,5.45
2022-12-08T05:11:32.802Z,5.12
2022-12-08T05:13:59.542Z,6.07
2022-12-08T05:16:26.059Z,6.25
2022-12-08T05:18:52.623Z,5.68
2022-12-08T05:21:19.157Z,5.70
2022-12-08T05:23:46.112Z,5.96
2022-12-08T05:26:12.929Z,6.11
2022-12-08T05:28:42.290Z,5.93
2022-12-08T05:31:10.821Z,5.55
2022-12-08T05:33:37.356Z,5.95
2022-12-08T05:36:04.154Z,5.81
2022-12-08T05:38:30.761Z,5.69
2022-12-08T05:40:57.251Z,6.18
2022-12-08T05:43:23.803Z,5.67
2022-12-08T05:45:50.615Z,5.96
2022-12-08T05:48:17.240Z,5.43
2022-12-08T05:50:48.113Z,5.61
2022-12-08T05:53:15.979Z,5.73
2022-12-08T05:55:42.702Z,6.06
2022-12-08T05:58:13.601Z,5.90
2022-12-08T06:00:40.717Z,6.59
2022-12-08T06:03:07.811Z,6.17
2022-12-08T06:05:35.243Z,5.75
2022-12-08T06:08:02.107Z,5.82
2022-12-08T06:10:28.972Z,5.05
2022-12-08T06:12:55.496Z,5.22
2022-12-08T06:15:22.012Z,5.60
2022-12-08T06:17:48.849Z,5.75
2022-12-08T06:20:15.506Z,5.54
2022-12-08T06:22:41.994Z,5.47
2022-12-08T06:25:10.270Z,5.74
2022-12-08T06:27:37.043Z,5.64
2022-12-08T06:30:04.216Z,5.39
2022-12-08T06:32:31.253Z,5.28
2022-12-08T06:34:57.821Z,5.53
2022-12-08T06:37:24.374Z,6.21
2022-12-08T06:39:51.741Z,5.25
2022-12-08T06:42:37.165Z,5.82
2022-12-08T06:45:03.952Z,5.95
2022-12-08T06:47:30.614Z,5.41
2022-12-08T06:50:08.301Z,5.45
2022-12-08T06:52:37.710Z,5.70
2022-12-08T06:55:08.425Z,5.79
2022-12-08T06:57:35.500Z,5.55
2022-12-08T07:00:02.829Z,5.63
2022-12-08T07:02:30.273Z,6.15
2022-12-08T07:04:56.851Z,6.01
2022-12-08T07:07:23.393Z,6.25
2022-12-08T07:09:49.934Z,6.50
2022-12-08T07:12:16.467Z,5.92
2022-12-08T07:14:42.976Z,5.82
2022-12-08T07:17:09.484Z,5.78
2022-12-08T07:19:36.506Z,6.11
2022-12-08T07:22:03.036Z,6.40
2022-12-08T07:24:29.585Z,5.91
2022-12-08T07:26:56.151Z,5.64
2022-12-08T07:29:26.186Z,5.62
2022-12-08T07:31:53.073Z,5.39
2022-12-08T07:34:19.558Z,6.20
2022-12-08T07:36:46.104Z,5.17
2022-12-08T07:39:12.637Z,5.36
2022-12-08T07:41:39.192Z,5.30
2022-12-08T07:44:05.740Z,5.44
2022-12-08T07:46:32.288Z,5.61
2022-12-08T07:48:59.133Z,5.94
2022-12-08T07:51:25.618Z,5.35
2022-12-08T07:53:54.503Z,5.60
2022-12-08T07:56:21.902Z,5.89
2022-12-08T07:58:48.559Z,5.70
2022-12-08T08:01:29.221Z,5.50
2022-12-08T08:03:57.399Z,5.47
2022-12-08T08:06:24.248Z,5.66
2022-12-08T08:08:50.953Z,5.43
2022-12-08T08:11:21.356Z,5.59
2022-12-08T08:13:49.473Z,5.71
2022-12-08T08:16:16.128Z,6.06
2022-12-08T08:18:43.509Z,5.80
2022-12-08T08:21:43.074Z,5.88
2022-12-08T08:23:56.719Z,5.84
2022-12-08T08:26:23.274Z,5.33
2022-12-08T08:28:50.125Z,5.71
2022-12-08T08:31:16.730Z,5.40
2022-12-08T08:33:43.241Z,5.25
2022-12-08T08:36:10.223Z,5.81
2022-12-08T08:38:40.158Z,5.25
2022-12-08T08:41:10.961Z,5.54
2022-12-08T08:43:38.700Z,5.77
2022-12-08T08:46:06.673Z,5.70
2022-12-08T08:48:33.457Z,6.33
2022-12-08T08:51:07.674Z,5.86
2022-12-08T08:53:34.284Z,5.45
2022-12-08T08:56:02.916Z,5.18
2022-12-08T08:58:29.686Z,6.20
2022-12-08T09:00:56.437Z,5.51
2022-12-08T09:03:23.027Z,5.57
2022-12-08T09:05:50.595Z,5.81
2022-12-08T09:08:17.732Z,5.53
2022-12-08T09:10:44.487Z,5.87
2022-12-08T09:13:10.973Z,5.78
2022-12-08T09:15:37.540Z,5.58
2022-12-08T09:18:06.608Z,5.10
2022-12-08T09:20:34.453Z,5.67
2022-12-08T09:23:01.317Z,5.21
2022-12-08T09:25:28.689Z,5.24
2022-12-08T09:27:55.239Z,5.08
2022-12-08T09:30:21.775Z,4.87
2022-12-08T09:32:48.400Z,5.14
2022-12-08T09:35:15.432Z,5.18
2022-12-08T09:37:41.951Z,4.81
2022-12-08T09:40:10.786Z,4.81
2022-12-08T09:43:04.784Z,5.19
2022-12-08T09:45:34.416Z,5.16
2022-12-08T09:48:10.211Z,5.78
2022-12-08T09:50:57.023Z,5.59
2022-12-08T09:53:37.874Z,5.33
2022-12-08T09:56:13.525Z,5.24
2022-12-08T09:58:44.331Z,6.02
2022-12-08T10:01:11.563Z,6.13
2022-12-08T10:03:38.126Z,5.56
2022-12-08T10:06:14.310Z,5.47
2022-12-08T10:08:57.103Z,5.89
2022-12-08T10:11:29.704Z,5.66
2022-12-08T10:14:14.873Z,6.32
2022-12-08T10:16:44.766Z,6.45
2022-12-08T10:19:15.654Z,6.37
2022-12-08T10:21:42.647Z,6.16
2022-12-08T10:24:39.425Z,6.26
2022-12-08T10:27:11.542Z,6.01
2022-12-08T10:29:38.753Z,5.56
2022-12-08T10:32:16.343Z,5.57
2022-12-08T10:35:19.179Z,5.59
2022-12-08T10:38:27.744Z,6.16
2022-12-08T10:41:07.361Z,6.19
2022-12-08T10:43:34.722Z,6.11
2022-12-08T10:46:11.098Z,5.93
2022-12-08T10:48:50.916Z,5.43
2022-12-08T10:51:42.878Z,5.98
2022-12-08T10:54:38.293Z,6.23
2022-12-08T10:57:04.841Z,5.95
2022-12-08T10:59:33.894Z,5.84
2022-12-08T11:02:00.851Z,5.68
2022-12-08T11:04:35.280Z,5.59
2022-12-08T11:07:03.308Z,5.01
2022-12-08T11:09:46.652Z,5.53
2022-12-08T11:12:15.035Z,5.11
2022-12-08T11:14:44.677Z,5.15
2022-12-08T11:17:25.309Z,5.53
2022-12-08T11:19:59.306Z,5.32
2022-12-08T11:22:32.422Z,5.05
2022-12-08T11:25:11.654Z,5.27
2022-12-08T11:27:41.185Z,5.11
2022-12-08T11:30:17.636Z,5.36
2022-12-08T11:32:46.626Z,5.56
2022-12-08T11:35:37.926Z,5.61
2022-12-08T11:38:23.378Z,5.71
2022-12-08T11:40:52.510Z,5.93
2022-12-08T11:43:22.073Z,5.33
2022-12-08T11:45:57.775Z,5.18
2022-12-08T11:48:27.341Z,5.30
2022-12-08T11:51:00.367Z,5.51
2022-12-08T11:53:36.134Z,5.08
2022-12-08T11:56:08.526Z,4.89
2022-12-08T11:58:38.356Z,4.94
2022-12-08T12:01:05.156Z,5.51
2022-12-08T12:03:39.037Z,5.41
2022-12-08T12:06:54.335Z,5.56
2022-12-08T12:09:28.823Z,5.46
2022-12-08T12:12:13.779Z,5.59
2022-12-08T12:15:31.989Z,5.50
2022-12-08T12:18:05.708Z,5.22
2022-12-08T12:20:36.802Z,5.60
2022-12-08T12:23:23.550Z,5.27
2022-12-08T12:25:56.462Z,5.17
2022-12-08T12:28:25.102Z,5.70
2022-12-08T12:31:05.445Z,5.77
2022-12-08T12:33:32.900Z,6.08
2022-12-08T12:36:04.043Z,6.00
2022-12-08T12:38:52.601Z,6.58
2022-12-08T12:41:25.716Z,6.51
2022-12-08T12:44:13.831Z,5.79
2022-12-08T12:46:41.004Z,5.58
2022-12-08T12:49:40.232Z,5.46
2022-12-08T12:52:09.663Z,5.54
2022-12-08T12:54:36.176Z,5.54
2022-12-08T12:57:05.723Z,5.89
2022-12-08T13:00:05.345Z,6.29
2022-12-08T13:02:44.109Z,6.68
2022-12-08T13:05:13.474Z,5.35
2022-12-08T13:07:51.027Z,5.72
2022-12-08T13:10:23.694Z,5.60
2022-12-08T13:13:12.656Z,5.71
2022-12-08T13:15:40.095Z,6.09
2022-12-08T13:18:56.450Z,6.49
2022-12-08T13:21:24.479Z,6.22
2022-12-08T13:24:13.918Z,6.16
2022-12-08T13:26:44.557Z,6.07
2022-12-08T13:29:15.387Z,5.94
2022-12-08T13:32:09.842Z,5.79
2022-12-08T13:34:42.223Z,6.28
2022-12-08T13:37:11.810Z,5.86
2022-12-08T13:39:55.638Z,6.29
2022-12-08T13:42:35.932Z,6.42
2022-12-08T13:45:36.268Z,6.25
2022-12-08T13:48:30.255Z,6.66
2022-12-08T13:57:30.616Z,5.78
2022-12-08T14:00:01.419Z,5.74
2022-12-08T14:02:52.417Z,5.61
2022-12-08T14:05:34.831Z,5.55
2022-12-08T14:08:50.468Z,5.54
2022-12-08T14:11:07.086Z,5.88
2022-12-08T14:13:34.079Z,5.80
2022-12-08T14:16:00.753Z,6.10
2022-12-08T14:18:30.509Z,6.11
2022-12-08T14:21:21.925Z,6.25
2022-12-08T14:23:48.741Z,5.94
2022-12-08T14:26:15.251Z,5.91
2022-12-08T14:28:45.064Z,5.66
2022-12-08T14:31:14.086Z,5.62
2022-12-08T14:33:40.761Z,5.05
2022-12-08T14:36:09.624Z,5.62
2022-12-08T14:38:36.297Z,5.09
2022-12-08T14:41:05.628Z,5.29
2022-12-08T14:43:32.632Z,5.24
2022-12-08T14:46:02.321Z,5.75
2022-12-08T14:48:34.833Z,6.04
2022-12-08T14:51:11.980Z,5.96
2022-12-08T14:53:53.662Z,5.72
2022-12-08T14:56:26.937Z,5.56
2022-12-08T14:59:17.898Z,5.27
2022-12-08T15:01:47.508Z,5.04
2022-12-08T15:04:14.675Z,5.43
2022-12-08T15:06:52.479Z,5.32
2022-12-08T15:09:34.485Z,5.26
2022-12-08T15:12:03.858Z,5.44
2022-12-08T15:14:39.664Z,5.29
2022-12-08T15:17:31.771Z,5.83
2022-12-08T15:19:59.841Z,5.86
2022-12-08T15:22:29.169Z,6.06
2022-12-08T15:24:55.945Z,6.24
2022-12-08T15:27:24.026Z,6.48
2022-12-08T15:29:51.036Z,6.44
2022-12-08T15:32:20.009Z,6.59
2022-12-08T15:34:46.535Z,6.47
2022-12-08T15:37:23.846Z,6.00
2022-12-08T15:39:51.222Z,6.33
2022-12-08T15:42:18.044Z,6.12
2022-12-08T15:44:44.505Z,5.83
2022-12-08T15:47:22.438Z,6.01
2022-12-08T15:49:49.882Z,6.40
2022-12-08T15:52:19.689Z,6.59
2022-12-08T15:54:46.755Z,6.43
2022-12-08T16:09:14.152Z,6.24
2022-12-08T16:12:08.819Z,6.56
2022-12-08T16:17:24.507Z,6.27
2022-12-08T16:19:51.330Z,6.36
2022-12-08T16:25:18.723Z,5.88
2022-12-08T16:28:17.432Z,5.62
2022-12-08T16:30:33.893Z,6.10
2022-12-08T16:33:00.440Z,6.46
2022-12-08T16:35:27.102Z,6.62
2022-12-08T16:37:53.622Z,6.90
2022-12-08T16:40:20.255Z,6.58
2022-12-08T16:42:48.541Z,6.64
2022-12-08T16:45:29.560Z,6.44
2022-12-08T16:47:58.715Z,6.14
2022-12-08T16:50:27.199Z,6.31
2022-12-08T16:53:05.880Z,6.53
2022-12-08T16:55:33.550Z,6.35
2022-12-08T16:58:00.437Z,5.83
2022-12-08T17:00:28.593Z,6.49
2022-12-08T17:02:56.612Z,6.17
2022-12-08T17:05:25.347Z,6.44
2022-12-08T17:07:52.911Z,6.30
2022-12-08T17:10:27.164Z,6.18
2022-12-08T17:12:54.540Z,6.30
2022-12-08T17:15:23.221Z,6.39
2022-12-08T17:17:50.398Z,6.46
2022-12-08T17:20:20.182Z,6.56
2022-12-08T17:22:47.077Z,6.14
2022-12-08T17:25:14.017Z,5.96
2022-12-08T17:27:41.159Z,6.36
2022-12-08T17:30:11.842Z,6.50
2022-12-08T17:32:38.655Z,6.71
2022-12-08T17:35:06.117Z,6.69
2022-12-08T17:37:32.877Z,6.72
2022-12-08T17:39:59.406Z,6.49
2022-12-08T17:42:27.267Z,6.35
2022-12-08T17:44:54.706Z,6.19
2022-12-08T17:47:21.901Z,6.20
2022-12-08T17:49:48.862Z,6.53
2022-12-08T17:52:15.370Z,6.29
2022-12-08T17:54:42.000Z,6.18
2022-12-08T17:57:08.574Z,6.24
2022-12-08T17:59:35.256Z,6.65
2022-12-08T18:02:02.327Z,6.77
2022-12-08T18:04:29.008Z,6.92
2022-12-08T18:06:58.147Z,6.57
2022-12-08T18:09:24.912Z,6.55
2022-12-08T18:11:51.431Z,6.80
2022-12-08T18:14:17.938Z,6.92
2022-12-08T18:16:46.158Z,7.06
2022-12-08T18:19:13.842Z,7.10
2022-12-08T18:21:41.573Z,6.90
2022-12-08T18:24:10.645Z,6.72
2022-12-08T18:26:37.196Z,6.50
2022-12-08T18:29:03.979Z,5.86
2022-12-08T18:31:30.535Z,5.75
2022-12-08T18:33:57.345Z,4.75
2022-12-08T18:36:25.239Z,4.92
2022-12-08T18:38:52.920Z,5.25
2022-12-08T18:41:23.594Z,5.69
2022-12-08T18:43:50.397Z,6.00
2022-12-08T18:46:17.313Z,6.47
2022-12-08T18:48:47.230Z,6.68
2022-12-08T18:51:22.199Z,6.73
2022-12-08T18:53:49.150Z,7.02
2022-12-08T18:56:27.583Z,6.99
2022-12-08T18:58:59.978Z,7.11
2022-12-08T19:01:31.336Z,6.89
2022-12-08T19:04:26.854Z,6.92
2022-12-08T19:06:46.040Z,6.72
2022-12-08T19:09:12.778Z,6.33
2022-12-08T19:11:39.692Z,5.93
2022-12-08T19:14:07.275Z,6.20
2022-12-08T19:16:33.854Z,6.26
2022-12-08T19:19:01.008Z,6.08
2022-12-08T19:21:28.547Z,5.94
2022-12-08T19:23:58.362Z,5.73
2022-12-08T19:26:27.424Z,6.14
2022-12-08T19:28:54.197Z,6.26
2022-12-08T19:31:21.123Z,6.73
2022-12-08T19:33:48.037Z,6.55
2022-12-08T19:36:18.336Z,6.88
2022-12-08T19:39:03.919Z,6.65
2022-12-08T19:41:50.013Z,6.83
2022-12-08T19:44:33.980Z,6.54
2022-12-08T19:47:01.679Z,5.79
2022-12-08T19:49:28.668Z,5.89
2022-12-08T19:51:55.697Z,5.94
2022-12-08T19:54:22.817Z,6.07
2022-12-08T19:56:49.776Z,6.57
2022-12-08T19:59:16.635Z,6.62
2022-12-08T20:01:44.146Z,6.75
2022-12-08T20:04:15.306Z,7.12
2022-12-08T20:06:42.193Z,6.88
2022-12-08T20:09:10.421Z,6.27
2022-12-08T20:11:37.648Z,5.73
2022-12-08T20:14:05.707Z,5.75
2022-12-08T20:16:32.472Z,5.69
2022-12-08T20:18:59.524Z,5.41
2022-12-08T20:21:26.357Z,5.46
2022-12-08T20:23:52.996Z,6.19
2022-12-08T20:26:21.920Z,6.43
2022-12-08T20:28:49.068Z,6.20
2022-12-08T20:31:20.288Z,6.22
2022-12-08T20:33:47.269Z,5.97
2022-12-08T20:36:18.563Z,6.08
2022-12-08T20:38:46.564Z,6.13
2022-12-08T20:41:15.908Z,6.73
2022-12-08T20:43:47.090Z,6.92
2022-12-08T20:46:16.539Z,6.70
2022-12-08T20:48:43.881Z,6.79
2022-12-08T20:51:18.442Z,6.99
2022-12-08T20:53:45.825Z,7.16
2022-12-08T20:56:17.933Z,7.27
2022-12-08T20:58:45.141Z,6.89
2022-12-08T21:01:14.948Z,6.76
2022-12-08T21:03:42.316Z,6.75
2022-12-08T21:06:09.343Z,6.95
2022-12-08T21:08:36.960Z,6.46
2022-12-08T21:11:04.459Z,6.41
2022-12-08T21:13:31.469Z,7.00
2022-12-08T21:15:58.452Z,7.02
2022-12-08T21:18:25.706Z,6.83
2022-12-08T21:20:53.204Z,6.80
2022-12-08T21:23:19.899Z,7.17
2022-12-08T21:25:47.398Z,7.35
2022-12-08T21:28:14.237Z,7.49
2022-12-08T21:30:41.486Z,7.31
2022-12-08T21:33:08.269Z,7.21
2022-12-08T21:35:34.898Z,7.22
2022-12-08T21:38:01.566Z,7.11
2022-12-08T21:40:28.284Z,7.05
2022-12-08T21:42:54.879Z,6.71
2022-12-08T21:45:21.974Z,6.86
2022-12-08T21:47:50.009Z,6.81
2022-12-08T21:50:17.255Z,6.79
2022-12-08T21:52:46.056Z,6.84
2022-12-08T21:55:14.078Z,6.91
2022-12-08T21:57:40.983Z,7.22
2022-12-08T22:00:08.718Z,7.35
2022-12-08T22:02:35.767Z,7.21
2022-12-08T22:05:02.804Z,7.25
2022-12-08T22:07:29.344Z,7.32
2022-12-08T22:09:56.038Z,7.33
2022-12-08T22:12:22.960Z,7.43
2022-12-08T22:14:51.011Z,7.22
2022-12-08T22:17:18.687Z,7.39
2022-12-08T22:19:45.389Z,7.11
2022-12-08T22:22:12.147Z,7.11
2022-12-08T22:24:38.679Z,7.13
2022-12-08T22:27:05.275Z,7.26
2022-12-08T22:29:31.954Z,7.44
2022-12-08T22:31:58.456Z,7.58
2022-12-08T22:34:24.937Z,7.62
2022-12-08T22:36:51.598Z,7.51
2022-12-08T22:39:18.404Z,7.74
2022-12-08T22:41:44.878Z,7.77
2022-12-08T22:44:11.984Z,7.74
2022-12-08T22:46:38.621Z,7.87
2022-12-08T22:49:05.248Z,7.02
2022-12-08T22:51:31.757Z,7.17
2022-12-08T22:53:58.254Z,7.34
2022-12-08T22:56:25.071Z,7.44
2022-12-08T22:58:54.782Z,7.49
2022-12-08T23:01:22.566Z,7.50
2022-12-08T23:03:49.400Z,7.44
2022-12-08T23:06:16.337Z,7.27
2022-12-08T23:08:44.020Z,7.26
2022-12-08T23:11:11.134Z,6.92
2022-12-08T23:13:39.386Z,6.74
2022-12-08T23:16:09.855Z,6.79
2022-12-08T23:18:37.481Z,6.81
2022-12-08T23:21:06.398Z,6.97
2022-12-08T23:23:33.026Z,6.84
2022-12-08T23:25:59.690Z,7.05
2022-12-08T23:28:26.341Z,7.17
2022-12-08T23:30:52.991Z,7.25
2022-12-08T23:33:19.735Z,6.96
2022-12-08T23:35:46.343Z,7.03
2022-12-08T23:38:13.159Z,6.96
2022-12-08T23:40:39.684Z,7.16
2022-12-08T23:43:06.240Z,7.25
2022-12-08T23:45:32.980Z,7.04
2022-12-08T23:47:59.609Z,6.91
2022-12-08T23:50:26.645Z,6.89
2022-12-08T23:52:53.135Z,6.98
2022-12-08T23:55:19.969Z,7.05
2022-12-08T23:57:46.475Z,6.98
